Pagina principale
METAR-TAF:

METAR-TAF

Aeroporti :

Aeroporto Internazionale di Hato

Curaçao, Antille olandesi

latitudine: 12-12N, longitudine: 068-58W, altezza: 9 m

Osservazione

Il bollettino è stato emesso 43 minuti fa, alle 09:00 UTC
Vento 4 kt da est/sud-est
Temperature 26°C
Umidità 89%
Pressione 1010 hPa
Visibilità 10 km o più
Poco nuvoloso ad un'altezza di 1300 ft, Cumulonembo.
rovesci di pioggia

METAR: TNCC 170900Z 12004KT 9999 -SHRA FEW013CB 26/24 Q1010 NOSIG

Ora: 05:43 (09:43 UTC)

Previsione

Il bollettino è stato emesso 5 ore e 43 minuti fa, alle 04:00 UTC
Previsione valida dal 17 alle 06 UTC al 18 alle 06 UTC
Vento 10 kt da est
Visibilità 10 km o più
Nubi sparse ad un'altezza di 2000 ft
Temporaneamente
dal 17 alle 06 UTC al 17 alle 14 UTC
Visibilità: 7000 m
Nuvoloso ad un'altezza di 1500 ft
Poco nuvoloso ad un'altezza di 1200 ft, Cumulonembo.
rovesci di pioggia

TAF: TNCC 170400Z 1706/1806 09010KT 9999 SCT020 TEMPO 1706/1714 7000 SHRA BKN015 FEW012CB

Osservazioni e previsioni meteorologiche di più di 4000 aeroporti (messaggi METAR e TAF).

Le stazioni disponibili sono rappresentate dai dischi gialli e rossi sulla carta.

Puntare il mouse per vedere il nome della stazione.

Clicca sopra per visualizzare le osservazioni e previsioni meteorologiche.

Per cambiare la mappa : fare clic sui pulsanti verdi con una croce nera per ingrandire, il pulsante verde con un trattino per diminuire, o sulla freccia verde per le mappe adiacenti.


METAR-TAF: